sensor_id;sensor_type;location;lat;lon;timestamp;P1;durP1;ratioP1;P2;durP2;ratioP2
54406;SDS011;40313;50.308;30.374;2022-12-18T02:58:15;32.45;;;22.70;;
54406;SDS011;40313;50.308;30.374;2022-12-18T03:00:47;46.83;;;22.85;;
54406;SDS011;40313;50.308;30.374;2022-12-18T03:03:18;29.48;;;18.80;;
54406;SDS011;40313;50.308;30.374;2022-12-18T03:05:52;37.75;;;16.35;;
54406;SDS011;40313;50.308;30.374;2022-12-18T03:08:23;29.92;;;19.10;;
54406;SDS011;40313;50.308;30.374;2022-12-18T03:10:53;26.95;;;17.30;;
54406;SDS011;40313;50.308;30.374;2022-12-18T03:13:27;21.73;;;13.80;;
54406;SDS011;40313;50.308;30.374;2022-12-18T03:15:59;26.23;;;14.80;;
54406;SDS011;40313;50.308;30.374;2022-12-18T03:18:29;14.80;;;13.18;;
54406;SDS011;40313;50.308;30.374;2022-12-18T03:21:03;22.70;;;16.40;;
54406;SDS011;40313;50.308;30.374;2022-12-18T03:28:31;22.43;;;16.77;;
54406;SDS011;40313;50.308;30.374;2022-12-18T04:15:48;18.60;;;13.27;;
54406;SDS011;40313;50.308;30.374;2022-12-18T04:18:14;14.37;;;11.73;;
54406;SDS011;40313;50.308;30.374;2022-12-18T04:20:42;16.27;;;14.70;;
54406;SDS011;40313;50.308;30.374;2022-12-18T04:23:09;17.30;;;13.50;;
54406;SDS011;40313;50.308;30.374;2022-12-18T04:25:35;20.65;;;14.25;;
54406;SDS011;40313;50.308;30.374;2022-12-18T05:02:13;21.60;;;13.75;;
54406;SDS011;40313;50.308;30.374;2022-12-18T05:04:40;19.25;;;12.77;;
54406;SDS011;40313;50.308;30.374;2022-12-18T05:14:27;15.27;;;13.63;;
54406;SDS011;40313;50.308;30.374;2022-12-18T05:31:37;13.18;;;11.52;;
54406;SDS011;40313;50.308;30.374;2022-12-18T05:34:03;15.20;;;11.05;;
54406;SDS011;40313;50.308;30.374;2022-12-18T05:36:30;18.30;;;13.27;;
54406;SDS011;40313;50.308;30.374;2022-12-18T05:38:56;13.63;;;11.80;;
54406;SDS011;40313;50.308;30.374;2022-12-18T05:41:23;12.25;;;10.80;;
54406;SDS011;40313;50.308;30.374;2022-12-18T05:43:50;16.05;;;12.20;;
54406;SDS011;40313;50.308;30.374;2022-12-18T05:46:17;21.67;;;13.68;;
54406;SDS011;40313;50.308;30.374;2022-12-18T05:48:44;14.05;;;12.38;;
54406;SDS011;40313;50.308;30.374;2022-12-18T05:51:12;21.38;;;13.25;;
54406;SDS011;40313;50.308;30.374;2022-12-18T05:53:41;12.30;;;10.98;;
54406;SDS011;40313;50.308;30.374;2022-12-18T05:56:10;17.05;;;10.77;;
54406;SDS011;40313;50.308;30.374;2022-12-18T05:58:38;12.13;;;11.10;;
54406;SDS011;40313;50.308;30.374;2022-12-18T06:01:06;8.55;;;7.68;;
54406;SDS011;40313;50.308;30.374;2022-12-18T06:03:35;12.43;;;10.90;;
54406;SDS011;40313;50.308;30.374;2022-12-18T06:06:02;19.75;;;12.23;;
54406;SDS011;40313;50.308;30.374;2022-12-18T06:08:29;9.07;;;8.18;;
54406;SDS011;40313;50.308;30.374;2022-12-18T06:10:55;17.23;;;10.90;;
54406;SDS011;40313;50.308;30.374;2022-12-18T06:13:22;13.57;;;12.20;;
54406;SDS011;40313;50.308;30.374;2022-12-18T06:15:48;8.80;;;8.00;;
54406;SDS011;40313;50.308;30.374;2022-12-18T06:18:15;13.43;;;10.05;;
54406;SDS011;40313;50.308;30.374;2022-12-18T06:20:43;15.52;;;10.27;;
54406;SDS011;40313;50.308;30.374;2022-12-18T06:23:09;12.02;;;10.70;;
54406;SDS011;40313;50.308;30.374;2022-12-18T06:30:30;20.17;;;11.05;;
54406;SDS011;40313;50.308;30.374;2022-12-18T06:32:56;11.07;;;9.98;;
54406;SDS011;40313;50.308;30.374;2022-12-18T06:35:23;16.05;;;9.73;;
54406;SDS011;40313;50.308;30.374;2022-12-18T14:23:48;7.95;;;7.18;;
54406;SDS011;40313;50.308;30.374;2022-12-18T14:26:22;15.45;;;12.63;;
54406;SDS011;40313;50.308;30.374;2022-12-18T21:20:42;19.80;;;11.40;;
54406;SDS011;40313;50.308;30.374;2022-12-18T21:23:09;7.93;;;6.63;;
54406;SDS011;40313;50.308;30.374;2022-12-18T21:25:36;13.85;;;10.38;;
54406;SDS011;40313;50.308;30.374;2022-12-18T21:28:02;22.30;;;10.82;;
54406;SDS011;40313;50.308;30.374;2022-12-18T21:30:29;15.70;;;9.75;;
54406;SDS011;40313;50.308;30.374;2022-12-18T21:32:55;14.32;;;10.10;;
54406;SDS011;40313;50.308;30.374;2022-12-18T21:35:22;12.27;;;7.82;;
54406;SDS011;40313;50.308;30.374;2022-12-18T21:37:50;7.15;;;6.13;;
54406;SDS011;40313;50.308;30.374;2022-12-18T21:40:16;19.33;;;10.43;;
54406;SDS011;40313;50.308;30.374;2022-12-18T21:42:43;17.80;;;10.60;;
54406;SDS011;40313;50.308;30.374;2022-12-18T21:45:27;19.95;;;8.57;;
54406;SDS011;40313;50.308;30.374;2022-12-18T21:47:53;6.05;;;5.63;;
54406;SDS011;40313;50.308;30.374;2022-12-18T21:50:20;13.70;;;9.45;;
54406;SDS011;40313;50.308;30.374;2022-12-18T21:52:47;17.33;;;9.98;;
54406;SDS011;40313;50.308;30.374;2022-12-18T21:55:15;11.05;;;8.05;;
54406;SDS011;40313;50.308;30.374;2022-12-18T21:57:41;10.25;;;7.57;;
54406;SDS011;40313;50.308;30.374;2022-12-18T22:00:10;11.02;;;9.85;;
54406;SDS011;40313;50.308;30.374;2022-12-18T22:02:38;10.63;;;8.43;;
54406;SDS011;40313;50.308;30.374;2022-12-18T22:05:04;10.98;;;8.85;;
54406;SDS011;40313;50.308;30.374;2022-12-18T22:07:31;15.50;;;10.15;;
54406;SDS011;40313;50.308;30.374;2022-12-18T22:09:58;11.18;;;8.65;;
54406;SDS011;40313;50.308;30.374;2022-12-18T22:12:26;10.65;;;8.88;;
54406;SDS011;40313;50.308;30.374;2022-12-18T22:22:20;9.18;;;6.85;;
54406;SDS011;40313;50.308;30.374;2022-12-18T22:24:47;11.40;;;6.05;;
54406;SDS011;40313;50.308;30.374;2022-12-18T22:27:13;16.05;;;9.95;;
54406;SDS011;40313;50.308;30.374;2022-12-18T22:29:41;12.45;;;7.85;;
54406;SDS011;40313;50.308;30.374;2022-12-18T22:32:25;8.57;;;7.78;;
54406;SDS011;40313;50.308;30.374;2022-12-18T22:34:52;14.43;;;8.63;;
54406;SDS011;40313;50.308;30.374;2022-12-18T22:37:19;8.13;;;7.45;;
54406;SDS011;40313;50.308;30.374;2022-12-18T22:39:45;9.18;;;8.23;;
